createdAt,value
2023-02-14T00:01:59.414Z,1.47
2023-02-14T00:07:02.778Z,1.30
2023-02-14T00:12:08.092Z,1.43
2023-02-14T00:17:11.701Z,1.80
2023-02-14T00:22:15.151Z,1.70
2023-02-14T00:27:19.860Z,2.00
2023-02-14T00:32:23.220Z,1.97
2023-02-14T00:37:30.014Z,2.00
2023-02-14T00:42:34.777Z,2.30
2023-02-14T00:47:38.209Z,2.50
2023-02-14T00:52:41.841Z,2.10
2023-02-14T00:57:46.557Z,2.77
2023-02-14T01:02:49.945Z,2.50
2023-02-14T01:07:53.219Z,2.33
2023-02-14T01:12:58.036Z,2.83
2023-02-14T01:18:01.957Z,2.97
2023-02-14T01:23:05.406Z,2.87
2023-02-14T01:28:11.551Z,2.23
2023-02-14T01:33:16.680Z,3.10
2023-02-14T01:38:20.103Z,3.30
2023-02-14T01:43:25.480Z,3.17
2023-02-14T01:48:29.018Z,2.97
2023-02-14T01:53:32.485Z,2.70
2023-02-14T01:58:40.847Z,2.87
2023-02-14T02:03:50.185Z,3.20
2023-02-14T02:09:04.119Z,3.10
2023-02-14T02:14:14.773Z,3.30
2023-02-14T02:19:58.691Z,3.03
2023-02-14T02:25:09.881Z,3.80
2023-02-14T02:30:43.331Z,2.90
2023-02-14T02:36:02.873Z,2.83
2023-02-14T02:41:19.775Z,3.40
2023-02-14T02:46:45.411Z,2.93
2023-02-14T02:52:21.726Z,2.80
2023-02-14T02:57:31.095Z,2.90
2023-02-14T03:02:58.736Z,3.07
2023-02-14T03:08:04.193Z,3.40
2023-02-14T03:13:43.352Z,2.93
2023-02-14T03:19:02.642Z,3.07
2023-02-14T03:24:17.533Z,3.00
2023-02-14T03:29:29.638Z,3.23
2023-02-14T03:34:39.631Z,3.00
2023-02-14T03:39:50.434Z,3.83
2023-02-14T03:44:58.508Z,3.20
2023-02-14T03:50:08.778Z,3.47
2023-02-14T03:55:18.265Z,4.23
2023-02-14T04:00:21.903Z,4.00
2023-02-14T04:05:28.520Z,4.47
2023-02-14T04:10:33.621Z,3.53
2023-02-14T04:15:37.131Z,3.47
2023-02-14T04:20:40.579Z,3.47
2023-02-14T04:25:45.747Z,4.67
2023-02-14T04:30:49.146Z,3.60
2023-02-14T04:35:52.551Z,3.33
2023-02-14T04:40:57.509Z,4.17
2023-02-14T04:46:01.107Z,4.10
2023-02-14T04:51:04.607Z,3.47
2023-02-14T04:56:09.794Z,3.03
2023-02-14T05:01:13.364Z,3.13
2023-02-14T05:06:16.767Z,2.80
2023-02-14T05:11:21.637Z,3.33
2023-02-14T05:16:26.710Z,3.87
2023-02-14T05:21:33.241Z,3.50
2023-02-14T05:26:37.972Z,3.90
2023-02-14T05:31:41.493Z,3.20
2023-02-14T05:36:45.016Z,3.20
2023-02-14T05:41:49.830Z,3.03
2023-02-14T05:46:54.922Z,3.23
2023-02-14T05:51:58.307Z,2.87
2023-02-14T05:57:02.993Z,2.93
2023-02-14T06:02:06.928Z,2.73
2023-02-14T06:07:10.396Z,3.47
2023-02-14T06:12:15.187Z,2.93
2023-02-14T06:17:18.546Z,2.67
2023-02-14T06:22:22.033Z,2.60
2023-02-14T06:27:26.783Z,2.93
2023-02-14T06:32:30.182Z,2.83
2023-02-14T06:37:34.148Z,2.67
2023-02-14T06:42:45.243Z,3.10
2023-02-14T06:47:53.865Z,3.00
2023-02-14T06:53:01.637Z,2.47
2023-02-14T06:58:08.896Z,2.57
2023-02-14T07:03:14.635Z,3.57
2023-02-14T07:08:21.301Z,3.03
2023-02-14T07:13:28.384Z,3.57
2023-02-14T07:18:33.991Z,3.17
2023-02-14T07:23:41.502Z,3.13
2023-02-14T07:28:49.399Z,2.97
2023-02-14T07:33:55.473Z,2.97
2023-02-14T07:39:00.418Z,2.77
2023-02-14T07:44:06.861Z,3.23
2023-02-14T07:49:12.935Z,3.10
2023-02-14T07:54:20.259Z,2.97
2023-02-14T07:59:26.722Z,3.57
2023-02-14T08:04:34.082Z,3.53
2023-02-14T08:09:40.174Z,4.00
2023-02-14T08:14:47.443Z,3.60
2023-02-14T08:19:53.632Z,3.60
2023-02-14T08:24:59.127Z,2.93
2023-02-14T08:30:05.750Z,3.70
2023-02-14T08:35:12.253Z,3.87
2023-02-14T08:40:17.501Z,3.37
2023-02-14T08:45:24.728Z,3.63
2023-02-14T08:50:31.179Z,4.33
2023-02-14T08:55:38.011Z,3.70
2023-02-14T09:00:46.262Z,4.20
2023-02-14T09:05:51.344Z,4.50
2023-02-14T09:10:57.089Z,3.50
2023-02-14T09:16:06.328Z,3.63
2023-02-14T09:21:12.914Z,3.77
2023-02-14T09:26:19.316Z,3.57
2023-02-14T09:31:27.212Z,3.60
2023-02-14T09:36:32.382Z,3.73
2023-02-14T09:42:04.036Z,3.83
2023-02-14T09:47:19.058Z,3.90
2023-02-14T09:52:29.565Z,4.53
2023-02-14T09:57:41.483Z,4.33
2023-02-14T10:02:58.433Z,3.90
2023-02-14T10:08:10.344Z,3.93
2023-02-14T10:13:21.218Z,3.90
2023-02-14T10:18:33.197Z,3.60
2023-02-14T10:23:42.419Z,3.33
2023-02-14T10:28:50.554Z,4.47
2023-02-14T10:33:58.379Z,4.07
2023-02-14T10:39:10.192Z,3.83
2023-02-14T10:44:27.928Z,3.90
2023-02-14T10:49:42.775Z,4.13
2023-02-14T10:54:53.688Z,3.93
2023-02-14T11:00:02.368Z,4.93
2023-02-14T11:05:10.280Z,4.80
2023-02-14T11:10:16.502Z,4.70
2023-02-14T11:15:27.949Z,4.87
2023-02-14T11:20:34.452Z,4.17
2023-02-14T11:25:39.893Z,4.03
2023-02-14T11:30:47.903Z,4.33
2023-02-14T11:35:55.471Z,4.57
2023-02-14T11:41:01.935Z,4.28
2023-02-14T11:46:14.675Z,4.55
2023-02-14T11:51:30.627Z,4.70
2023-02-14T11:56:55.637Z,4.50
2023-02-14T12:02:05.091Z,4.38
2023-02-14T12:07:21.178Z,4.35
2023-02-14T12:12:27.809Z,5.30
2023-02-14T12:17:36.056Z,4.43
2023-02-14T12:22:49.084Z,4.25
2023-02-14T12:27:58.970Z,4.30
2023-02-14T12:33:06.022Z,4.50
2023-02-14T12:38:23.401Z,4.70
2023-02-14T12:43:48.405Z,4.13
2023-02-14T12:49:07.579Z,4.67
2023-02-14T12:54:31.175Z,4.07
2023-02-14T12:59:45.800Z,4.47
2023-02-14T13:05:03.022Z,4.32
2023-02-14T13:10:24.587Z,4.22
2023-02-14T13:15:37.085Z,4.32
2023-02-14T13:20:53.906Z,4.37
2023-02-14T13:26:06.656Z,4.38
2023-02-14T13:31:15.350Z,4.38
2023-02-14T13:36:22.686Z,4.07
2023-02-14T13:41:30.450Z,4.43
2023-02-14T13:46:53.981Z,4.45
2023-02-14T13:52:01.487Z,4.53
2023-02-14T13:57:29.391Z,4.13
2023-02-14T14:02:45.953Z,4.55
2023-02-14T14:08:14.009Z,4.25
2023-02-14T14:13:52.007Z,3.88
2023-02-14T14:19:00.309Z,4.72
2023-02-14T14:24:24.886Z,3.92
2023-02-14T14:29:32.515Z,4.43
2023-02-14T14:34:38.752Z,4.43
2023-02-14T14:39:45.283Z,5.13
2023-02-14T14:44:52.727Z,4.53
2023-02-14T14:50:06.409Z,4.90
2023-02-14T14:55:18.573Z,4.53
2023-02-14T15:00:29.033Z,4.72
2023-02-14T15:05:38.491Z,4.23
2023-02-14T15:10:45.463Z,4.80
2023-02-14T15:15:52.706Z,4.53
2023-02-14T15:21:02.684Z,5.20
2023-02-14T15:26:08.931Z,4.47
2023-02-14T15:31:15.086Z,5.88
2023-02-14T15:36:25.578Z,5.03
2023-02-14T15:41:30.352Z,4.67
2023-02-14T15:46:38.669Z,5.70
2023-02-14T15:51:45.609Z,5.23
2023-02-14T15:56:52.971Z,4.33
2023-02-14T16:02:02.173Z,4.27
2023-02-14T16:07:24.313Z,4.83
2023-02-14T16:12:34.860Z,5.43
2023-02-14T16:17:42.607Z,4.43
2023-02-14T16:22:49.770Z,6.03
2023-02-14T16:27:55.464Z,4.77
2023-02-14T16:33:02.645Z,6.20
2023-02-14T16:38:21.582Z,5.63
2023-02-14T16:43:26.393Z,5.70
2023-02-14T16:48:34.537Z,5.60
2023-02-14T16:53:43.063Z,4.90
2023-02-14T16:58:50.875Z,4.87
2023-02-14T17:03:57.460Z,5.20
2023-02-14T17:09:09.428Z,5.90
2023-02-14T17:14:23.514Z,5.80
2023-02-14T17:19:31.006Z,6.10
2023-02-14T17:24:38.773Z,6.37
2023-02-14T17:29:48.450Z,5.87
2023-02-14T17:34:55.641Z,5.37
2023-02-14T17:40:06.664Z,5.43
2023-02-14T17:45:17.240Z,5.77
2023-02-14T17:50:23.841Z,5.87
2023-02-14T17:55:31.612Z,5.10
2023-02-14T18:00:38.548Z,6.13
2023-02-14T18:05:47.229Z,6.07
2023-02-14T18:10:56.120Z,5.70
2023-02-14T18:16:05.830Z,5.93
2023-02-14T18:21:16.786Z,5.17
2023-02-14T18:26:28.985Z,5.53
2023-02-14T18:31:39.864Z,5.80
2023-02-14T18:36:47.904Z,5.20
2023-02-14T18:47:23.406Z,5.50
2023-02-14T18:52:28.037Z,6.33
2023-02-14T18:57:39.522Z,5.37
2023-02-14T19:02:45.582Z,6.10
2023-02-14T19:07:56.996Z,5.43
2023-02-14T19:13:02.925Z,6.53
2023-02-14T19:18:09.670Z,5.17
2023-02-14T19:23:14.922Z,6.13
2023-02-14T19:28:19.769Z,5.80
2023-02-14T19:33:27.859Z,5.97
2023-02-14T19:38:33.537Z,5.47
2023-02-14T19:43:42.146Z,5.50
2023-02-14T19:48:52.305Z,5.63
2023-02-14T19:53:58.896Z,5.13
2023-02-14T19:59:08.468Z,6.43
2023-02-14T20:04:17.801Z,5.73
2023-02-14T20:09:28.418Z,4.53
2023-02-14T20:14:47.113Z,4.40
2023-02-14T20:20:04.476Z,5.40
2023-02-14T20:25:13.650Z,5.03
2023-02-14T20:30:26.550Z,5.30
2023-02-14T20:35:35.332Z,5.60
2023-02-14T20:40:42.977Z,4.97
2023-02-14T20:45:50.994Z,4.90
2023-02-14T20:50:58.507Z,4.97
2023-02-14T20:56:04.670Z,5.97
2023-02-14T21:01:11.211Z,4.37
2023-02-14T21:06:19.246Z,4.90
2023-02-14T21:11:27.809Z,5.30
2023-02-14T21:16:37.559Z,5.17
2023-02-14T21:21:46.057Z,4.77
2023-02-14T21:26:51.912Z,5.27
2023-02-14T21:31:57.976Z,6.03
2023-02-14T21:37:05.153Z,5.07
2023-02-14T21:42:12.459Z,6.40
2023-02-14T21:47:18.931Z,4.13
2023-02-14T21:52:25.556Z,5.33
2023-02-14T21:57:32.072Z,5.67
2023-02-14T22:02:39.045Z,5.60
2023-02-14T22:07:46.077Z,5.40
2023-02-14T22:12:50.131Z,6.00
2023-02-14T22:17:53.457Z,5.00
2023-02-14T22:22:58.529Z,5.13
2023-02-14T22:28:02.849Z,5.80
2023-02-14T22:33:06.175Z,6.33
2023-02-14T22:38:12.092Z,4.63
2023-02-14T22:43:16.246Z,4.77
2023-02-14T22:48:20.487Z,4.67
2023-02-14T22:53:25.439Z,4.87
2023-02-14T22:58:28.812Z,5.53
2023-02-14T23:03:32.184Z,5.90
2023-02-14T23:08:39.816Z,4.73
2023-02-14T23:14:01.423Z,5.47
2023-02-14T23:19:22.038Z,4.97
2023-02-14T23:24:26.799Z,5.10
2023-02-14T23:29:30.230Z,5.40
2023-02-14T23:34:35.297Z,5.70
2023-02-14T23:39:40.003Z,6.07
2023-02-14T23:44:44.464Z,6.67
2023-02-14T23:49:47.803Z,5.23
2023-02-14T23:54:52.493Z,4.83
2023-02-14T23:59:55.888Z,5.63
